sensor_id;sensor_type;location;lat;lon;timestamp;pressure;altitude;pressure_sealevel;temperature;humidity
38852;BME280;24605;50.092;9.182;2023-04-03T00:00:28;98862.91;;;2.51;100.00
38852;BME280;24605;50.092;9.182;2023-04-03T00:02:56;98874.88;;;2.66;100.00
38852;BME280;24605;50.092;9.182;2023-04-03T00:05:22;98873.06;;;2.54;100.00
38852;BME280;24605;50.092;9.182;2023-04-03T00:07:48;98871.56;;;2.64;100.00
38852;BME280;24605;50.092;9.182;2023-04-03T00:10:16;98864.91;;;2.60;100.00
38852;BME280;24605;50.092;9.182;2023-04-03T00:12:42;98861.59;;;2.58;100.00
38852;BME280;24605;50.092;9.182;2023-04-03T00:15:09;98866.22;;;2.53;100.00
38852;BME280;24605;50.092;9.182;2023-04-03T00:17:36;98835.94;;;2.12;100.00
38852;BME280;24605;50.092;9.182;2023-04-03T00:20:05;98855.44;;;2.32;100.00
38852;BME280;24605;50.092;9.182;2023-04-03T00:22:32;98854.44;;;2.20;100.00
38852;BME280;24605;50.092;9.182;2023-04-03T00:24:58;98855.78;;;2.26;100.00
38852;BME280;24605;50.092;9.182;2023-04-03T00:27:25;98863.28;;;2.30;100.00
38852;BME280;24605;50.092;9.182;2023-04-03T00:29:51;98859.03;;;2.29;100.00
38852;BME280;24605;50.092;9.182;2023-04-03T00:32:18;98859.13;;;2.28;100.00
38852;BME280;24605;50.092;9.182;2023-04-03T00:34:44;98864.94;;;2.31;100.00
38852;BME280;24605;50.092;9.182;2023-04-03T00:37:12;98859.59;;;2.20;100.00
38852;BME280;24605;50.092;9.182;2023-04-03T00:39:39;98856.63;;;2.12;100.00
38852;BME280;24605;50.092;9.182;2023-04-03T00:42:06;98862.38;;;2.17;100.00
38852;BME280;24605;50.092;9.182;2023-04-03T00:47:36;98853.88;;;2.15;100.00
38852;BME280;24605;50.092;9.182;2023-04-03T00:50:05;98866.53;;;2.19;100.00
38852;BME280;24605;50.092;9.182;2023-04-03T00:52:33;98858.66;;;2.21;100.00
38852;BME280;24605;50.092;9.182;2023-04-03T00:55:02;98873.84;;;2.27;100.00
38852;BME280;24605;50.092;9.182;2023-04-03T00:57:30;98868.56;;;2.29;100.00
38852;BME280;24605;50.092;9.182;2023-04-03T01:00:03;98868.66;;;2.27;100.00
38852;BME280;24605;50.092;9.182;2023-04-03T01:02:31;98869.09;;;2.34;100.00
38852;BME280;24605;50.092;9.182;2023-04-03T01:04:57;98869.94;;;2.34;100.00
38852;BME280;24605;50.092;9.182;2023-04-03T01:07:27;98864.94;;;2.31;100.00
38852;BME280;24605;50.092;9.182;2023-04-03T01:09:58;98847.56;;;2.33;100.00
38852;BME280;24605;50.092;9.182;2023-04-03T01:12:27;98868.81;;;2.53;100.00
38852;BME280;24605;50.092;9.182;2023-04-03T01:14:56;98874.25;;;2.63;100.00
38852;BME280;24605;50.092;9.182;2023-04-03T01:17:31;98874.25;;;2.63;100.00
38852;BME280;24605;50.092;9.182;2023-04-03T01:22:59;98878.88;;;2.58;100.00
38852;BME280;24605;50.092;9.182;2023-04-03T01:25:32;98876.16;;;2.74;100.00
38852;BME280;24605;50.092;9.182;2023-04-03T01:28:00;98881.75;;;2.53;100.00
38852;BME280;24605;50.092;9.182;2023-04-03T01:30:31;98878.59;;;2.48;100.00
38852;BME280;24605;50.092;9.182;2023-04-03T01:33:00;98874.16;;;2.50;100.00
38852;BME280;24605;50.092;9.182;2023-04-03T01:35:27;98884.53;;;2.64;100.00
38852;BME280;24605;50.092;9.182;2023-04-03T01:37:54;98869.09;;;2.34;100.00
38852;BME280;24605;50.092;9.182;2023-04-03T01:40:20;98881.66;;;2.26;100.00
38852;BME280;24605;50.092;9.182;2023-04-03T01:42:46;98887.13;;;2.35;100.00
38852;BME280;24605;50.092;9.182;2023-04-03T01:45:13;98880.84;;;2.54;100.00
38852;BME280;24605;50.092;9.182;2023-04-03T01:47:40;98886.38;;;2.62;100.00
38852;BME280;24605;50.092;9.182;2023-04-03T01:50:08;98884.63;;;2.48;100.00
38852;BME280;24605;50.092;9.182;2023-04-03T01:52:35;98887.94;;;2.36;100.00
38852;BME280;24605;50.092;9.182;2023-04-03T01:55:01;98880.72;;;2.56;100.00
38852;BME280;24605;50.092;9.182;2023-04-03T01:57:28;98882.69;;;2.52;100.00
38852;BME280;24605;50.092;9.182;2023-04-03T01:59:54;98863.34;;;2.43;100.00
38852;BME280;24605;50.092;9.182;2023-04-03T02:02:21;98882.28;;;2.58;100.00
38852;BME280;24605;50.092;9.182;2023-04-03T02:04:47;98878.81;;;2.45;100.00
38852;BME280;24605;50.092;9.182;2023-04-03T02:07:15;98882.13;;;2.61;100.00
38852;BME280;24605;50.092;9.182;2023-04-03T02:09:42;98871.97;;;2.44;100.00
38852;BME280;24605;50.092;9.182;2023-04-03T02:12:08;98882.09;;;2.47;100.00
38852;BME280;24605;50.092;9.182;2023-04-03T02:14:35;98885.91;;;2.56;100.00
38852;BME280;24605;50.092;9.182;2023-04-03T02:17:01;98885.63;;;2.60;100.00
38852;BME280;24605;50.092;9.182;2023-04-03T02:19:30;98882.22;;;2.60;100.00
38852;BME280;24605;50.092;9.182;2023-04-03T02:21:56;98886.72;;;2.56;100.00
38852;BME280;24605;50.092;9.182;2023-04-03T02:24:24;98877.13;;;2.44;100.00
38852;BME280;24605;50.092;9.182;2023-04-03T02:26:51;98874.84;;;2.25;100.00
38852;BME280;24605;50.092;9.182;2023-04-03T02:29:17;98885.56;;;2.33;100.00
38852;BME280;24605;50.092;9.182;2023-04-03T02:31:44;98879.81;;;2.28;100.00
38852;BME280;24605;50.092;9.182;2023-04-03T02:34:10;98863.28;;;2.16;100.00
38852;BME280;24605;50.092;9.182;2023-04-03T02:36:37;98881.22;;;2.19;100.00
38852;BME280;24605;50.092;9.182;2023-04-03T02:39:04;98867.44;;;2.04;100.00
38852;BME280;24605;50.092;9.182;2023-04-03T02:41:32;98881.56;;;2.13;100.00
38852;BME280;24605;50.092;9.182;2023-04-03T02:44:00;98883.03;;;1.88;100.00
38852;BME280;24605;50.092;9.182;2023-04-03T02:46:27;98893.03;;;2.09;100.00
38852;BME280;24605;50.092;9.182;2023-04-03T02:48:54;98883.63;;;2.08;100.00
38852;BME280;24605;50.092;9.182;2023-04-03T02:51:20;98863.28;;;1.87;100.00
38852;BME280;24605;50.092;9.182;2023-04-03T02:53:48;98869.72;;;1.80;100.00
38852;BME280;24605;50.092;9.182;2023-04-03T02:56:14;98885.63;;;1.88;100.00
38852;BME280;24605;50.092;9.182;2023-04-03T02:58:43;98879.53;;;1.89;100.00
38852;BME280;24605;50.092;9.182;2023-04-03T03:01:11;98884.69;;;1.89;100.00
38852;BME280;24605;50.092;9.182;2023-04-03T03:03:37;98882.28;;;1.86;100.00
38852;BME280;24605;50.092;9.182;2023-04-03T03:06:05;98879.63;;;1.87;100.00
38852;BME280;24605;50.092;9.182;2023-04-03T03:08:33;98880.56;;;1.86;100.00
38852;BME280;24605;50.092;9.182;2023-04-03T03:11:00;98876.47;;;1.82;100.00
38852;BME280;24605;50.092;9.182;2023-04-03T03:13:27;98870.16;;;1.58;100.00
38852;BME280;24605;50.092;9.182;2023-04-03T03:15:54;98879.16;;;1.81;100.00
38852;BME280;24605;50.092;9.182;2023-04-03T03:18:21;98884.69;;;1.89;100.00
38852;BME280;24605;50.092;9.182;2023-04-03T03:20:50;98883.78;;;1.76;100.00
38852;BME280;24605;50.092;9.182;2023-04-03T03:23:17;98876.47;;;1.82;100.00
38852;BME280;24605;50.092;9.182;2023-04-03T03:25:43;98881.53;;;1.69;100.00
38852;BME280;24605;50.092;9.182;2023-04-03T03:28:13;98886.25;;;1.77;100.00
38852;BME280;24605;50.092;9.182;2023-04-03T03:30:39;98888.09;;;1.75;100.00
38852;BME280;24605;50.092;9.182;2023-04-03T03:33:07;98886.16;;;1.79;100.00
38852;BME280;24605;50.092;9.182;2023-04-03T03:35:34;98883.66;;;1.77;100.00
38852;BME280;24605;50.092;9.182;2023-04-03T03:38:00;98879.31;;;1.78;100.00
38852;BME280;24605;50.092;9.182;2023-04-03T03:40:27;98879.16;;;1.81;100.00
38852;BME280;24605;50.092;9.182;2023-04-03T03:42:53;98881.53;;;1.69;100.00
38852;BME280;24605;50.092;9.182;2023-04-03T03:45:19;98880.22;;;1.62;100.00
38852;BME280;24605;50.092;9.182;2023-04-03T03:47:46;98862.09;;;1.48;100.00
38852;BME280;24605;50.092;9.182;2023-04-03T03:50:14;98884.56;;;1.31;100.00
38852;BME280;24605;50.092;9.182;2023-04-03T03:52:40;98879.88;;;1.38;100.00
38852;BME280;24605;50.092;9.182;2023-04-03T03:55:07;98885.03;;;1.38;100.00
38852;BME280;24605;50.092;9.182;2023-04-03T03:57:34;98881.72;;;1.05;100.00
38852;BME280;24605;50.092;9.182;2023-04-03T04:00:01;98856.97;;;1.01;100.00
38852;BME280;24605;50.092;9.182;2023-04-03T04:02:27;98883.22;;;1.24;100.00
38852;BME280;24605;50.092;9.182;2023-04-03T04:04:54;98887.75;;;1.20;100.00
38852;BME280;24605;50.092;9.182;2023-04-03T04:07:22;98893.16;;;1.16;100.00
38852;BME280;24605;50.092;9.182;2023-04-03T04:09:48;98881.09;;;1.00;100.00
38852;BME280;24605;50.092;9.182;2023-04-03T04:12:15;98888.44;;;0.92;100.00
38852;BME280;24605;50.092;9.182;2023-04-03T04:14:42;98887.28;;;0.82;100.00
38852;BME280;24605;50.092;9.182;2023-04-03T04:17:11;98882.22;;;0.80;100.00
38852;BME280;24605;50.092;9.182;2023-04-03T04:19:38;98897.84;;;0.77;100.00
38852;BME280;24605;50.092;9.182;2023-04-03T04:22:04;98893.53;;;0.61;100.00
38852;BME280;24605;50.092;9.182;2023-04-03T04:24:32;98896.41;;;0.39;100.00
38852;BME280;24605;50.092;9.182;2023-04-03T04:26:59;98893.50;;;0.45;100.00
38852;BME280;24605;50.092;9.182;2023-04-03T04:29:25;98883.50;;;0.39;100.00
38852;BME280;24605;50.092;9.182;2023-04-03T04:31:52;98872.72;;;0.49;100.00
38852;BME280;24605;50.092;9.182;2023-04-03T04:34:18;98890.00;;;0.30;100.00
38852;BME280;24605;50.092;9.182;2023-04-03T04:36:45;98877.53;;;0.39;100.00
38852;BME280;24605;50.092;9.182;2023-04-03T04:39:11;98892.69;;;0.45;100.00
38852;BME280;24605;50.092;9.182;2023-04-03T04:41:39;98889.50;;;0.40;100.00
38852;BME280;24605;50.092;9.182;2023-04-03T04:44:06;98901.75;;;0.52;100.00
38852;BME280;24605;50.092;9.182;2023-04-03T04:46:32;98896.41;;;0.39;100.00
38852;BME280;24605;50.092;9.182;2023-04-03T04:48:59;98902.25;;;0.43;100.00
38852;BME280;24605;50.092;9.182;2023-04-03T04:51:26;98902.06;;;0.30;100.00
38852;BME280;24605;50.092;9.182;2023-04-03T04:53:52;98905.72;;;0.26;100.00
38852;BME280;24605;50.092;9.182;2023-04-03T04:56:18;98900.19;;;0.16;100.00
38852;BME280;24605;50.092;9.182;2023-04-03T04:58:47;98906.34;;;0.13;100.00
38852;BME280;24605;50.092;9.182;2023-04-03T05:01:14;98904.38;;;0.01;100.00
38852;BME280;24605;50.092;9.182;2023-04-03T05:03:40;98910.53;;;-0.02;100.00
38852;BME280;24605;50.092;9.182;2023-04-03T05:06:07;98913.19;;;-0.03;100.00
38852;BME280;24605;50.092;9.182;2023-04-03T05:08:33;98917.19;;;0.03;100.00
38852;BME280;24605;50.092;9.182;2023-04-03T05:11:00;98904.69;;;-0.05;100.00
38852;BME280;24605;50.092;9.182;2023-04-03T05:13:27;98915.78;;;-0.03;100.00
38852;BME280;24605;50.092;9.182;2023-04-03T05:15:54;98906.28;;;-0.20;100.00
38852;BME280;24605;50.092;9.182;2023-04-03T05:18:21;98921.31;;;-0.28;100.00
38852;BME280;24605;50.092;9.182;2023-04-03T05:20:48;98921.97;;;-0.25;100.00
38852;BME280;24605;50.092;9.182;2023-04-03T05:23:15;98882.84;;;-0.49;100.00
38852;BME280;24605;50.092;9.182;2023-04-03T05:25:42;98919.13;;;-0.19;100.00
38852;BME280;24605;50.092;9.182;2023-04-03T05:28:09;98926.84;;;-0.36;100.00
38852;BME280;24605;50.092;9.182;2023-04-03T05:30:36;98929.56;;;-0.22;100.00
38852;BME280;24605;50.092;9.182;2023-04-03T05:33:03;98926.41;;;-0.27;100.00
38852;BME280;24605;50.092;9.182;2023-04-03T05:35:31;98924.09;;;-0.33;100.00
38852;BME280;24605;50.092;9.182;2023-04-03T05:37:57;98936.72;;;-0.27;100.00
38852;BME280;24605;50.092;9.182;2023-04-03T05:40:24;98930.03;;;-0.31;100.00
38852;BME280;24605;50.092;9.182;2023-04-03T05:42:50;98927.44;;;-0.31;100.00
38852;BME280;24605;50.092;9.182;2023-04-03T05:45:18;98942.59;;;-0.25;100.00
38852;BME280;24605;50.092;9.182;2023-04-03T05:47:45;98948.88;;;-0.30;100.00
38852;BME280;24605;50.092;9.182;2023-04-03T05:50:13;98939.72;;;-0.36;100.00
38852;BME280;24605;50.092;9.182;2023-04-03T05:52:42;98940.88;;;-0.24;100.00
38852;BME280;24605;50.092;9.182;2023-04-03T05:55:10;98940.56;;;-0.36;100.00
38852;BME280;24605;50.092;9.182;2023-04-03T05:57:37;98903.03;;;-0.41;100.00
38852;BME280;24605;50.092;9.182;2023-04-03T06:00:04;98953.00;;;-0.09;100.00
38852;BME280;24605;50.092;9.182;2023-04-03T06:02:31;98957.16;;;-0.24;100.00
38852;BME280;24605;50.092;9.182;2023-04-03T06:04:57;98960.94;;;-0.31;100.00
38852;BME280;24605;50.092;9.182;2023-04-03T06:07:26;98964.44;;;-0.14;100.00
38852;BME280;24605;50.092;9.182;2023-04-03T06:09:54;98968.81;;;-0.17;100.00
38852;BME280;24605;50.092;9.182;2023-04-03T06:12:22;98958.97;;;-0.08;100.00
38852;BME280;24605;50.092;9.182;2023-04-03T06:14:51;98969.81;;;-0.02;100.00
38852;BME280;24605;50.092;9.182;2023-04-03T06:17:18;98946.31;;;-0.13;100.00
38852;BME280;24605;50.092;9.182;2023-04-03T06:19:46;98981.47;;;0.06;100.00
38852;BME280;24605;50.092;9.182;2023-04-03T06:22:13;98974.03;;;0.17;100.00
38852;BME280;24605;50.092;9.182;2023-04-03T06:24:41;98983.78;;;0.12;100.00
38852;BME280;24605;50.092;9.182;2023-04-03T06:27:09;98980.06;;;0.18;100.00
38852;BME280;24605;50.092;9.182;2023-04-03T06:29:36;98963.38;;;0.07;100.00
38852;BME280;24605;50.092;9.182;2023-04-03T06:32:08;98980.88;;;0.18;100.00
38852;BME280;24605;50.092;9.182;2023-04-03T06:34:35;98987.16;;;0.12;100.00
38852;BME280;24605;50.092;9.182;2023-04-03T06:37:03;98990.41;;;0.16;100.00
38852;BME280;24605;50.092;9.182;2023-04-03T06:39:30;98986.69;;;0.39;100.00
38852;BME280;24605;50.092;9.182;2023-04-03T06:41:58;98978.47;;;0.49;100.00
38852;BME280;24605;50.092;9.182;2023-04-03T06:44:24;98989.09;;;0.60;100.00
38852;BME280;24605;50.092;9.182;2023-04-03T06:46:51;98991.72;;;0.58;100.00
38852;BME280;24605;50.092;9.182;2023-04-03T06:49:19;98991.91;;;0.71;100.00
38852;BME280;24605;50.092;9.182;2023-04-03T06:51:46;98992.00;;;0.70;100.00
38852;BME280;24605;50.092;9.182;2023-04-03T06:54:13;98937.19;;;0.49;100.00
38852;BME280;24605;50.092;9.182;2023-04-03T06:56:40;98972.22;;;0.70;100.00
38852;BME280;24605;50.092;9.182;2023-04-03T06:59:09;98980.69;;;0.72;100.00
38852;BME280;24605;50.092;9.182;2023-04-03T07:01:35;99000.03;;;0.97;100.00
38852;BME280;24605;50.092;9.182;2023-04-03T07:04:02;99002.53;;;1.15;100.00
38852;BME280;24605;50.092;9.182;2023-04-03T07:06:28;99003.28;;;1.17;100.00
38852;BME280;24605;50.092;9.182;2023-04-03T07:08:56;99010.28;;;1.15;100.00
38852;BME280;24605;50.092;9.182;2023-04-03T07:11:22;99010.78;;;1.21;100.00
38852;BME280;24605;50.092;9.182;2023-04-03T07:13:49;98984.75;;;1.10;100.00
38852;BME280;24605;50.092;9.182;2023-04-03T07:16:17;98993.97;;;1.14;100.00
38852;BME280;24605;50.092;9.182;2023-04-03T07:18:45;99023.63;;;1.39;100.00
38852;BME280;24605;50.092;9.182;2023-04-03T07:21:12;99025.13;;;1.43;100.00
38852;BME280;24605;50.092;9.182;2023-04-03T07:23:39;99023.53;;;1.56;100.00
38852;BME280;24605;50.092;9.182;2023-04-03T07:26:05;99031.94;;;1.60;100.00
38852;BME280;24605;50.092;9.182;2023-04-03T07:28:33;99029.56;;;1.57;100.00
38852;BME280;24605;50.092;9.182;2023-04-03T07:31:01;99030.97;;;1.47;100.00
38852;BME280;24605;50.092;9.182;2023-04-03T07:33:30;99023.69;;;1.69;100.00
38852;BME280;24605;50.092;9.182;2023-04-03T07:35:56;99036.19;;;1.77;100.00
38852;BME280;24605;50.092;9.182;2023-04-03T07:38:23;99023.25;;;1.93;100.00
38852;BME280;24605;50.092;9.182;2023-04-03T07:40:51;99041.38;;;2.08;100.00
38852;BME280;24605;50.092;9.182;2023-04-03T07:43:19;99035.91;;;2.28;100.00
38852;BME280;24605;50.092;9.182;2023-04-03T07:45:47;99042.00;;;1.97;100.00
38852;BME280;24605;50.092;9.182;2023-04-03T07:48:16;99042.19;;;2.08;100.00
38852;BME280;24605;50.092;9.182;2023-04-03T07:50:44;99019.31;;;2.16;100.00
38852;BME280;24605;50.092;9.182;2023-04-03T07:53:11;99044.78;;;2.39;100.00
38852;BME280;24605;50.092;9.182;2023-04-03T07:55:38;99039.97;;;2.47;100.00
38852;BME280;24605;50.092;9.182;2023-04-03T07:58:08;99042.84;;;2.12;100.00
38852;BME280;24605;50.092;9.182;2023-04-03T08:00:36;99039.03;;;2.33;100.00
38852;BME280;24605;50.092;9.182;2023-04-03T08:03:03;99037.78;;;2.10;100.00
38852;BME280;24605;50.092;9.182;2023-04-03T08:05:30;99049.88;;;2.40;100.00
38852;BME280;24605;50.092;9.182;2023-04-03T08:07:58;99053.00;;;2.31;100.00
38852;BME280;24605;50.092;9.182;2023-04-03T08:10:25;99043.78;;;2.56;100.00
38852;BME280;24605;50.092;9.182;2023-04-03T08:12:51;99048.53;;;2.63;100.00
38852;BME280;24605;50.092;9.182;2023-04-03T08:15:18;99050.25;;;2.48;100.00
38852;BME280;24605;50.092;9.182;2023-04-03T08:17:44;99059.50;;;2.53;100.00
38852;BME280;24605;50.092;9.182;2023-04-03T08:20:11;99046.31;;;2.72;100.00
38852;BME280;24605;50.092;9.182;2023-04-03T08:22:37;99047.03;;;2.74;99.01
38852;BME280;24605;50.092;9.182;2023-04-03T08:25:06;99047.16;;;3.01;99.11
38852;BME280;24605;50.092;9.182;2023-04-03T08:27:33;99024.56;;;2.89;97.47
38852;BME280;24605;50.092;9.182;2023-04-03T08:29:59;99053.88;;;3.18;99.60
38852;BME280;24605;50.092;9.182;2023-04-03T08:32:27;99053.78;;;3.20;97.83
38852;BME280;24605;50.092;9.182;2023-04-03T08:34:54;99051.84;;;2.94;97.20
38852;BME280;24605;50.092;9.182;2023-04-03T08:37:21;99055.19;;;2.96;95.30
38852;BME280;24605;50.092;9.182;2023-04-03T08:39:47;99049.66;;;2.88;96.11
38852;BME280;24605;50.092;9.182;2023-04-03T08:42:22;99047.25;;;3.00;95.92
38852;BME280;24605;50.092;9.182;2023-04-03T08:44:57;99046.47;;;3.12;97.56
38852;BME280;24605;50.092;9.182;2023-04-03T08:47:29;99037.88;;;2.97;93.92
38852;BME280;24605;50.092;9.182;2023-04-03T08:50:06;99037.44;;;3.05;95.65
38852;BME280;24605;50.092;9.182;2023-04-03T08:52:37;99059.41;;;3.41;93.25
38852;BME280;24605;50.092;9.182;2023-04-03T08:55:07;99012.91;;;3.10;91.49
38852;BME280;24605;50.092;9.182;2023-04-03T08:57:39;99041.88;;;3.17;91.55
38852;BME280;24605;50.092;9.182;2023-04-03T09:00:17;99064.59;;;3.26;91.00
38852;BME280;24605;50.092;9.182;2023-04-03T09:02:46;99049.56;;;3.60;91.09
38852;BME280;24605;50.092;9.182;2023-04-03T09:05:16;99055.03;;;3.41;89.05
38852;BME280;24605;50.092;9.182;2023-04-03T09:07:44;99034.59;;;3.37;89.88
38852;BME280;24605;50.092;9.182;2023-04-03T09:10:14;99058.84;;;3.36;88.78
38852;BME280;24605;50.092;9.182;2023-04-03T09:12:45;99037.47;;;3.32;90.70
38852;BME280;24605;50.092;9.182;2023-04-03T09:15:17;99052.44;;;3.83;89.92
38852;BME280;24605;50.092;9.182;2023-04-03T09:17:53;99052.91;;;3.48;89.49
38852;BME280;24605;50.092;9.182;2023-04-03T09:22:52;99054.41;;;3.38;91.03
38852;BME280;24605;50.092;9.182;2023-04-03T09:25:22;99050.53;;;3.31;90.43
38852;BME280;24605;50.092;9.182;2023-04-03T09:27:51;99042.47;;;3.35;90.08
38852;BME280;24605;50.092;9.182;2023-04-03T09:30:19;99054.91;;;3.30;89.51
38852;BME280;24605;50.092;9.182;2023-04-03T09:32:48;99054.97;;;3.28;89.21
38852;BME280;24605;50.092;9.182;2023-04-03T09:35:21;99054.81;;;3.03;90.70
38852;BME280;24605;50.092;9.182;2023-04-03T09:37:50;99044.25;;;3.62;91.44
38852;BME280;24605;50.092;9.182;2023-04-03T09:40:36;99051.75;;;3.67;86.78
38852;BME280;24605;50.092;9.182;2023-04-03T09:43:28;99029.69;;;3.32;86.78
38852;BME280;24605;50.092;9.182;2023-04-03T09:45:56;99054.28;;;3.81;86.41
38852;BME280;24605;50.092;9.182;2023-04-03T09:48:50;99052.28;;;3.44;83.78
38852;BME280;24605;50.092;9.182;2023-04-03T09:51:16;99048.88;;;3.71;86.52
38852;BME280;24605;50.092;9.182;2023-04-03T09:53:44;99063.50;;;3.31;85.80
38852;BME280;24605;50.092;9.182;2023-04-03T09:56:24;99048.53;;;3.49;88.24
38852;BME280;24605;50.092;9.182;2023-04-03T09:59:06;99037.47;;;3.74;87.10
38852;BME280;24605;50.092;9.182;2023-04-03T10:01:35;99046.69;;;3.65;85.11
38852;BME280;24605;50.092;9.182;2023-04-03T10:04:08;99037.88;;;3.68;85.77
38852;BME280;24605;50.092;9.182;2023-04-03T10:06:37;99032.84;;;3.65;84.22
38852;BME280;24605;50.092;9.182;2023-04-03T10:09:16;99044.78;;;3.40;83.61
38852;BME280;24605;50.092;9.182;2023-04-03T10:11:57;99038.03;;;3.37;82.54
38852;BME280;24605;50.092;9.182;2023-04-03T10:14:25;99035.91;;;3.71;85.64
38852;BME280;24605;50.092;9.182;2023-04-03T10:16:58;99032.97;;;3.63;81.73
38852;BME280;24605;50.092;9.182;2023-04-03T10:19:34;99032.47;;;3.71;81.47
38852;BME280;24605;50.092;9.182;2023-04-03T10:22:06;99023.84;;;4.11;78.62
38852;BME280;24605;50.092;9.182;2023-04-03T10:24:47;99016.38;;;4.06;69.42
38852;BME280;24605;50.092;9.182;2023-04-03T10:27:18;99031.81;;;4.48;64.09
38852;BME280;24605;50.092;9.182;2023-04-03T10:29:50;99026.50;;;5.01;64.66
38852;BME280;24605;50.092;9.182;2023-04-03T10:32:54;99040.00;;;4.93;56.85
38852;BME280;24605;50.092;9.182;2023-04-03T10:35:35;99029.50;;;4.69;56.43
38852;BME280;24605;50.092;9.182;2023-04-03T10:38:09;99042.59;;;4.93;57.16
38852;BME280;24605;50.092;9.182;2023-04-03T10:40:45;99004.69;;;4.91;59.98
38852;BME280;24605;50.092;9.182;2023-04-03T10:43:18;99032.00;;;5.09;56.28
38852;BME280;24605;50.092;9.182;2023-04-03T10:45:57;99043.31;;;5.08;58.14
38852;BME280;24605;50.092;9.182;2023-04-03T10:51:19;99039.84;;;5.21;57.00
38852;BME280;24605;50.092;9.182;2023-04-03T10:53:53;99038.78;;;5.36;55.56
38852;BME280;24605;50.092;9.182;2023-04-03T10:56:30;99041.22;;;5.13;53.40
38852;BME280;24605;50.092;9.182;2023-04-03T10:59:02;99044.72;;;4.62;49.60
38852;BME280;24605;50.092;9.182;2023-04-03T11:01:38;99038.44;;;5.04;53.99
38852;BME280;24605;50.092;9.182;2023-04-03T11:04:06;99014.88;;;4.68;50.33
38852;BME280;24605;50.092;9.182;2023-04-03T11:06:37;99031.25;;;5.07;51.02
38852;BME280;24605;50.092;9.182;2023-04-03T11:09:14;99025.25;;;5.07;56.12
38852;BME280;24605;50.092;9.182;2023-04-03T11:11:43;99017.19;;;5.23;57.97
38852;BME280;24605;50.092;9.182;2023-04-03T11:14:16;99011.19;;;5.09;57.11
38852;BME280;24605;50.092;9.182;2023-04-03T11:16:48;99007.38;;;5.02;52.11
38852;BME280;24605;50.092;9.182;2023-04-03T11:19:18;99011.97;;;5.23;51.75
38852;BME280;24605;50.092;9.182;2023-04-03T11:21:52;99012.56;;;5.02;53.94
38852;BME280;24605;50.092;9.182;2023-04-03T11:24:25;98996.84;;;5.04;54.59
38852;BME280;24605;50.092;9.182;2023-04-03T11:26:53;99025.13;;;5.45;54.50
38852;BME280;24605;50.092;9.182;2023-04-03T11:29:24;99014.56;;;5.60;54.87
38852;BME280;24605;50.092;9.182;2023-04-03T11:32:08;99016.84;;;5.64;54.19
38852;BME280;24605;50.092;9.182;2023-04-03T11:34:38;98984.50;;;5.80;52.65
38852;BME280;24605;50.092;9.182;2023-04-03T11:37:13;99008.34;;;5.98;53.24
38852;BME280;24605;50.092;9.182;2023-04-03T11:39:50;99011.13;;;6.08;51.44
38852;BME280;24605;50.092;9.182;2023-04-03T11:42:27;99008.66;;;6.06;52.42
38852;BME280;24605;50.092;9.182;2023-04-03T11:45:17;99009.50;;;6.18;53.27
38852;BME280;24605;50.092;9.182;2023-04-03T11:47:52;99005.69;;;6.11;52.74
38852;BME280;24605;50.092;9.182;2023-04-03T11:50:43;99014.84;;;6.17;54.10
38852;BME280;24605;50.092;9.182;2023-04-03T11:53:31;99010.75;;;6.01;50.78
38852;BME280;24605;50.092;9.182;2023-04-03T11:56:30;99006.50;;;5.76;50.21
38852;BME280;24605;50.092;9.182;2023-04-03T11:59:16;99003.75;;;5.77;49.92
38852;BME280;24605;50.092;9.182;2023-04-03T12:01:48;98994.09;;;5.79;50.93
38852;BME280;24605;50.092;9.182;2023-04-03T12:04:18;98994.91;;;5.80;50.70
38852;BME280;24605;50.092;9.182;2023-04-03T12:09:57;98985.94;;;6.20;49.15
38852;BME280;24605;50.092;9.182;2023-04-03T12:12:31;98962.16;;;6.24;47.26
38852;BME280;24605;50.092;9.182;2023-04-03T12:15:22;98972.84;;;6.21;48.38
38852;BME280;24605;50.092;9.182;2023-04-03T12:17:50;98981.50;;;6.67;47.29
38852;BME280;24605;50.092;9.182;2023-04-03T12:20:55;98977.81;;;6.58;47.55
38852;BME280;24605;50.092;9.182;2023-04-03T12:23:30;98975.03;;;6.03;49.87
38852;BME280;24605;50.092;9.182;2023-04-03T12:26:04;98972.22;;;6.29;50.41
38852;BME280;24605;50.092;9.182;2023-04-03T12:28:37;98953.16;;;6.17;49.63
38852;BME280;24605;50.092;9.182;2023-04-03T12:31:08;98966.19;;;6.40;48.83
38852;BME280;24605;50.092;9.182;2023-04-03T12:36:41;98962.09;;;6.49;49.69
38852;BME280;24605;50.092;9.182;2023-04-03T12:39:22;98968.72;;;6.41;46.49
38852;BME280;24605;50.092;9.182;2023-04-03T12:41:56;98969.22;;;6.69;46.68
38852;BME280;24605;50.092;9.182;2023-04-03T12:44:35;98962.31;;;6.57;45.32
38852;BME280;24605;50.092;9.182;2023-04-03T12:47:18;98966.09;;;6.53;46.79
38852;BME280;24605;50.092;9.182;2023-04-03T12:49:49;98950.47;;;6.53;48.94
38852;BME280;24605;50.092;9.182;2023-04-03T12:52:21;98946.78;;;6.67;46.04
38852;BME280;24605;50.092;9.182;2023-04-03T12:54:50;98949.63;;;7.09;45.94
38852;BME280;24605;50.092;9.182;2023-04-03T12:57:19;98954.34;;;7.15;46.38
38852;BME280;24605;50.092;9.182;2023-04-03T12:59:46;98881.22;;;7.05;46.05
38852;BME280;24605;50.092;9.182;2023-04-03T13:02:31;98947.69;;;7.55;44.04
38852;BME280;24605;50.092;9.182;2023-04-03T13:05:05;98950.31;;;7.11;45.94
38852;BME280;24605;50.092;9.182;2023-04-03T13:07:34;98951.09;;;7.67;45.50
38852;BME280;24605;50.092;9.182;2023-04-03T13:10:14;98956.19;;;7.36;42.08
38852;BME280;24605;50.092;9.182;2023-04-03T13:12:47;98961.09;;;7.06;42.62
38852;BME280;24605;50.092;9.182;2023-04-03T13:15:17;98955.66;;;6.98;44.32
38852;BME280;24605;50.092;9.182;2023-04-03T13:17:45;98908.78;;;6.64;44.23
38852;BME280;24605;50.092;9.182;2023-04-03T13:20:15;98937.22;;;6.79;45.05
38852;BME280;24605;50.092;9.182;2023-04-03T13:22:49;98929.06;;;7.27;43.44
38852;BME280;24605;50.092;9.182;2023-04-03T13:25:17;98938.81;;;7.46;42.91
38852;BME280;24605;50.092;9.182;2023-04-03T13:27:46;98937.41;;;7.10;43.26
38852;BME280;24605;50.092;9.182;2023-04-03T13:30:21;98932.25;;;7.19;43.61
38852;BME280;24605;50.092;9.182;2023-04-03T13:32:49;98924.91;;;7.25;43.33